Terminal Aerodrome Forecast
Issued by NWS

Home | Current Version | Previous Version | Text Only | Print | Product List | Glossary On
Versions: 1 2 3 4 5 6 7 8 9 10 11 12 13 14 15 16 17 18 19 20 21
000
FTUS45 KTFX 222300
TAFGTF
TAF
KGTF 222337Z 2300/2324 02008KT P6SM SCT020 OVC035
     FM230300 01010KT 5SM -SHRA OVC020
     FM231200 35012KT 4SM RA BR OVC006
     FM232200 35015KT 5SM -RA OVC010=

USA.gov is the U.S. government's official web portal to all federal, state and local government web resources and services.